Terminal Aerodrome Forecast
Issued by NWS

Home | Current Version | Previous Version | Text Only | Print | Product List | Glossary Off
Versions: 1 2 3 4 5 6 7 8 9 10 11 12 13 14 15 16 17 18

000
FTUS44 KLZK 280500 RRA
TAFLIT
TAF
KLIT 280542Z 2806/2906 05005KT P6SM OVC110
     FM280900 12005KT P6SM SCT050 OVC100
     FM281400 11008KT P6SM SCT030 OVC050 PROB30 2815/2819 -RA
     FM281900 11008KT P6SM OVC050
     FM290000 09005KT P6SM SCT060 BKN250=

USA.gov is the U.S. government's official web portal to all federal, state and local government web resources and services.